createdAt,value
2019-01-31T00:01:33.199Z,3.04
2019-01-31T00:04:56.627Z,3.07
2019-01-31T00:07:45.645Z,3.06
2019-01-31T00:11:09.565Z,3.03
2019-01-31T00:14:13.967Z,3.04
2019-01-31T00:16:55.839Z,3.04
2019-01-31T00:19:34.399Z,3.02
2019-01-31T00:22:41.307Z,3.03
2019-01-31T00:25:29.718Z,3.03
2019-01-31T00:28:44.318Z,3.05
2019-01-31T00:31:37.644Z,3.03
2019-01-31T00:34:57.802Z,3.02
2019-01-31T00:37:43.032Z,3.02
2019-01-31T00:40:53.309Z,3.04
2019-01-31T00:44:11.328Z,3.05
2019-01-31T00:47:27.035Z,3.05
2019-01-31T00:50:32.131Z,3.03
2019-01-31T00:53:37.052Z,3.03
2019-01-31T00:56:55.124Z,3.02
2019-01-31T00:59:57.137Z,2.98
2019-01-31T01:02:46.764Z,2.94
2019-01-31T01:05:40.858Z,2.95
2019-01-31T01:08:46.884Z,2.92
2019-01-31T01:11:46.474Z,2.90
2019-01-31T01:14:54.096Z,2.90
2019-01-31T01:17:37.835Z,2.73
2019-01-31T01:20:21.517Z,2.72
2019-01-31T01:23:30.801Z,2.60
2019-01-31T01:26:55.036Z,2.58
2019-01-31T01:29:46.192Z,2.53
2019-01-31T01:32:50.027Z,2.52
2019-01-31T01:35:47.896Z,2.49
2019-01-31T01:38:41.428Z,2.40
2019-01-31T01:41:54.496Z,2.38
2019-01-31T01:44:36.305Z,2.37
2019-01-31T01:47:17.575Z,2.32
2019-01-31T01:49:52.127Z,2.29
2019-01-31T01:52:47.786Z,2.29
2019-01-31T01:55:52.272Z,2.30
2019-01-31T01:58:29.314Z,2.28
2019-01-31T02:01:36.893Z,2.23
2019-01-31T02:11:01.740Z,2.15
2019-01-31T02:14:09.022Z,2.16
2019-01-31T02:17:03.480Z,2.18
2019-01-31T02:20:12.794Z,2.19
2019-01-31T02:47:20.392Z,2.08
2019-01-31T02:50:34.884Z,2.12
2019-01-31T02:53:26.074Z,2.15
2019-01-31T02:56:04.779Z,2.11
2019-01-31T02:59:06.956Z,2.13
2019-01-31T03:02:24.671Z,2.15
2019-01-31T03:05:21.378Z,2.18
2019-01-31T03:08:44.406Z,2.17
2019-01-31T03:11:20.867Z,2.18
2019-01-31T03:14:28.888Z,2.19
2019-01-31T03:17:45.623Z,2.19
2019-01-31T03:20:44.254Z,2.23
2019-01-31T03:23:48.768Z,2.24
2019-01-31T03:26:49.080Z,2.26
2019-01-31T03:29:37.483Z,2.30
2019-01-31T03:32:37.325Z,2.31
2019-01-31T03:35:38.232Z,2.34
2019-01-31T03:38:43.654Z,2.32
2019-01-31T03:41:31.136Z,2.40
2019-01-31T03:44:12.880Z,2.45
2019-01-31T03:47:21.833Z,2.49
2019-01-31T03:50:00.931Z,2.46
2019-01-31T03:53:12.953Z,2.52
2019-01-31T03:56:04.961Z,2.53
2019-01-31T03:59:14.463Z,2.59
2019-01-31T04:02:15.661Z,2.65
2019-01-31T04:05:32.942Z,2.66
2019-01-31T04:08:00.143Z,2.67
2019-01-31T04:10:29.685Z,2.71
2019-01-31T04:12:56.938Z,2.74
2019-01-31T04:15:24.161Z,2.70
2019-01-31T04:17:51.389Z,2.73
2019-01-31T04:20:18.628Z,2.79
2019-01-31T04:22:45.852Z,2.77
2019-01-31T04:25:13.069Z,2.81
2019-01-31T04:27:40.310Z,2.80
2019-01-31T04:30:10.527Z,2.73
2019-01-31T04:32:37.759Z,2.77
2019-01-31T04:35:05.255Z,2.75
2019-01-31T04:37:32.479Z,2.74
2019-01-31T04:39:59.711Z,2.78
2019-01-31T04:42:26.955Z,2.69
2019-01-31T04:44:54.195Z,2.71
2019-01-31T04:47:21.432Z,2.76
2019-01-31T04:49:48.725Z,2.77
2019-01-31T04:52:15.922Z,2.68
2019-01-31T04:54:43.211Z,2.71
2019-01-31T04:57:10.451Z,2.74
2019-01-31T04:59:37.673Z,2.73
2019-01-31T05:02:04.908Z,2.76
2019-01-31T05:04:32.185Z,2.82
2019-01-31T05:06:59.404Z,2.77
2019-01-31T05:09:26.683Z,2.81
2019-01-31T05:11:54.011Z,2.75
2019-01-31T05:14:21.228Z,2.75
2019-01-31T05:16:48.452Z,2.76
2019-01-31T05:19:15.709Z,2.75
2019-01-31T05:21:42.897Z,2.70
2019-01-31T05:24:10.121Z,2.73
2019-01-31T05:26:37.401Z,2.73
2019-01-31T05:29:04.617Z,2.71
2019-01-31T05:31:31.833Z,2.67
2019-01-31T05:33:59.088Z,2.68
2019-01-31T05:36:26.307Z,2.67
2019-01-31T05:38:53.518Z,2.71
2019-01-31T05:41:20.788Z,2.69
2019-01-31T05:43:48.005Z,2.67
2019-01-31T05:46:18.292Z,2.65
2019-01-31T05:48:44.371Z,2.70
2019-01-31T05:51:11.665Z,2.62
2019-01-31T05:53:38.878Z,2.70
2019-01-31T05:56:06.154Z,2.66
2019-01-31T05:58:33.377Z,2.68
2019-01-31T06:01:00.578Z,2.65
2019-01-31T06:03:27.829Z,2.71
2019-01-31T06:05:55.107Z,2.76
2019-01-31T06:08:22.349Z,2.77
2019-01-31T06:10:49.571Z,2.78
2019-01-31T06:13:16.886Z,2.74
2019-01-31T06:15:44.122Z,2.60
2019-01-31T06:18:11.354Z,2.53
2019-01-31T06:20:38.605Z,2.48
2019-01-31T06:23:05.818Z,2.51
2019-01-31T06:25:33.040Z,2.60
2019-01-31T06:28:00.309Z,2.57
2019-01-31T06:30:30.242Z,2.49
2019-01-31T06:32:57.459Z,2.52
2019-01-31T06:35:24.717Z,2.58
2019-01-31T06:37:51.955Z,2.55
2019-01-31T06:40:19.460Z,2.62
2019-01-31T06:42:46.927Z,2.61
2019-01-31T06:45:16.398Z,2.59
2019-01-31T06:47:43.608Z,2.64
2019-01-31T06:50:10.860Z,2.75
2019-01-31T06:52:38.284Z,2.63
2019-01-31T06:55:05.886Z,2.58
2019-01-31T06:57:33.147Z,2.71
2019-01-31T07:00:00.341Z,2.76
2019-01-31T07:02:27.559Z,2.72
2019-01-31T07:04:54.822Z,2.58
2019-01-31T07:07:22.076Z,2.63
2019-01-31T07:09:49.332Z,2.63
2019-01-31T07:12:16.551Z,2.67
2019-01-31T07:14:44.604Z,2.65
2019-01-31T07:17:11.881Z,2.69
2019-01-31T07:19:39.098Z,2.63
2019-01-31T07:22:06.434Z,2.60
2019-01-31T07:24:33.698Z,2.65
2019-01-31T07:27:00.909Z,2.63
2019-01-31T07:29:28.144Z,2.65
2019-01-31T07:31:55.413Z,2.46
2019-01-31T07:34:22.632Z,2.51
2019-01-31T07:36:49.858Z,2.53
2019-01-31T07:39:17.115Z,2.63
2019-01-31T07:41:44.330Z,2.68
2019-01-31T07:44:11.547Z,2.51
2019-01-31T07:46:38.827Z,2.59
2019-01-31T07:49:06.226Z,2.62
2019-01-31T07:51:33.521Z,2.60
2019-01-31T07:54:00.748Z,2.59
2019-01-31T07:56:27.980Z,2.57
2019-01-31T07:58:55.238Z,2.62
2019-01-31T08:01:22.460Z,2.63
2019-01-31T08:03:49.686Z,2.66
2019-01-31T08:06:16.938Z,2.62
2019-01-31T08:08:44.157Z,2.69
2019-01-31T08:11:11.375Z,2.71
2019-01-31T08:13:38.629Z,2.70
2019-01-31T08:16:05.833Z,2.72
2019-01-31T08:18:33.157Z,2.80
2019-01-31T08:21:00.418Z,2.80
2019-01-31T08:23:27.628Z,2.88
2019-01-31T08:25:54.846Z,2.92
2019-01-31T08:28:22.132Z,2.94
2019-01-31T08:30:49.468Z,2.90
2019-01-31T08:33:16.683Z,2.89
2019-01-31T08:35:43.934Z,2.90
2019-01-31T08:38:11.177Z,3.01
2019-01-31T08:40:38.399Z,3.02
2019-01-31T08:43:05.659Z,3.04
2019-01-31T08:45:32.912Z,3.02
2019-01-31T08:48:00.131Z,3.01
2019-01-31T08:50:27.958Z,3.07
2019-01-31T08:52:55.321Z,3.10
2019-01-31T08:55:22.549Z,3.12
2019-01-31T08:57:49.775Z,3.20
2019-01-31T09:00:20.064Z,3.25
2019-01-31T09:02:47.349Z,3.31
2019-01-31T09:05:14.684Z,3.33
2019-01-31T09:07:41.928Z,3.34
2019-01-31T09:10:13.121Z,3.44
2019-01-31T09:12:40.330Z,3.39
2019-01-31T09:15:08.301Z,3.41
2019-01-31T09:17:35.557Z,3.43
2019-01-31T09:20:03.757Z,3.30
2019-01-31T09:22:40.108Z,3.35
2019-01-31T09:25:46.640Z,3.38
2019-01-31T09:28:33.186Z,3.25
2019-01-31T09:31:38.030Z,3.27
2019-01-31T09:34:49.458Z,3.41
2019-01-31T09:38:03.549Z,3.46
2019-01-31T09:41:15.280Z,3.39
2019-01-31T09:44:42.696Z,3.50
2019-01-31T09:47:50.743Z,3.44
2019-01-31T09:50:45.201Z,3.41
2019-01-31T09:53:41.919Z,3.38
2019-01-31T09:56:55.948Z,3.40
2019-01-31T09:59:44.047Z,3.45
2019-01-31T10:02:55.101Z,3.31
2019-01-31T10:06:18.380Z,3.34
2019-01-31T10:09:21.450Z,3.39
2019-01-31T10:12:38.184Z,3.43
2019-01-31T10:15:38.148Z,3.40
2019-01-31T10:18:36.070Z,3.48
2019-01-31T10:21:33.552Z,3.53
2019-01-31T10:24:36.971Z,3.40
2019-01-31T10:27:48.891Z,3.43
2019-01-31T10:30:56.244Z,3.32
2019-01-31T10:34:23.645Z,3.42
2019-01-31T10:37:20.182Z,3.50
2019-01-31T10:39:56.616Z,3.54
2019-01-31T10:42:32.306Z,3.61
2019-01-31T10:45:49.331Z,3.46
2019-01-31T10:48:48.455Z,3.46
2019-01-31T10:52:09.500Z,3.30
2019-01-31T10:55:06.300Z,3.42
2019-01-31T10:58:08.730Z,3.39
2019-01-31T11:01:36.002Z,3.42
2019-01-31T11:04:47.599Z,3.33
2019-01-31T11:08:02.557Z,3.43
2019-01-31T11:10:51.093Z,3.39
2019-01-31T11:13:54.348Z,3.48
2019-01-31T11:16:56.866Z,3.36
2019-01-31T11:19:38.963Z,3.42
2019-01-31T11:22:53.987Z,3.52
2019-01-31T11:26:05.745Z,3.53
2019-01-31T11:29:10.434Z,3.46
2019-01-31T11:32:11.817Z,3.60
2019-01-31T11:35:15.398Z,3.63
2019-01-31T11:38:05.784Z,3.63
2019-01-31T11:41:10.669Z,3.67
2019-01-31T11:44:29.653Z,3.68
2019-01-31T11:47:20.457Z,3.80
2019-01-31T11:50:08.833Z,3.76
2019-01-31T11:52:50.712Z,3.87
2019-01-31T11:55:48.746Z,3.83
2019-01-31T11:58:42.885Z,3.97
2019-01-31T12:01:10.432Z,4.09
2019-01-31T12:03:38.084Z,4.09
2019-01-31T12:06:05.437Z,4.17
2019-01-31T12:08:32.658Z,4.20
2019-01-31T12:10:59.858Z,4.08
2019-01-31T12:13:27.132Z,4.15
2019-01-31T12:15:54.348Z,4.22
2019-01-31T12:18:21.553Z,4.22
2019-01-31T12:20:48.851Z,4.30
2019-01-31T12:23:16.081Z,4.30
2019-01-31T12:25:43.322Z,4.38
2019-01-31T12:28:10.679Z,4.33
2019-01-31T12:30:37.918Z,4.47
2019-01-31T12:33:05.145Z,4.60
2019-01-31T12:35:32.396Z,4.73
2019-01-31T12:37:59.618Z,4.69
2019-01-31T12:40:26.936Z,4.85
2019-01-31T12:42:54.195Z,4.79
2019-01-31T12:45:21.529Z,4.81
2019-01-31T12:47:48.772Z,4.77
2019-01-31T12:50:22.018Z,4.68
2019-01-31T12:52:49.336Z,4.72
2019-01-31T12:55:16.574Z,4.78
2019-01-31T12:57:44.768Z,4.81
2019-01-31T13:00:16.849Z,4.80
2019-01-31T13:02:44.068Z,4.85
2019-01-31T13:05:12.738Z,4.96
2019-01-31T13:07:40.968Z,4.90
2019-01-31T13:10:08.629Z,4.73
2019-01-31T13:12:35.853Z,4.73
2019-01-31T13:15:03.838Z,4.70
2019-01-31T13:17:31.277Z,4.63
2019-01-31T13:19:58.525Z,4.57
2019-01-31T13:22:25.743Z,4.71
2019-01-31T13:24:52.997Z,4.77
2019-01-31T13:27:20.203Z,4.70
2019-01-31T13:29:47.425Z,4.72
2019-01-31T13:32:14.686Z,4.62
2019-01-31T13:34:41.934Z,4.71
2019-01-31T13:37:09.266Z,4.78
2019-01-31T13:39:36.542Z,4.86
2019-01-31T13:42:04.045Z,4.84
2019-01-31T13:44:31.352Z,4.76
2019-01-31T13:46:58.712Z,4.85
2019-01-31T13:49:25.935Z,4.80
2019-01-31T13:51:53.196Z,4.71
2019-01-31T13:54:20.473Z,4.79
2019-01-31T13:56:47.695Z,4.73
2019-01-31T13:59:14.957Z,4.71
2019-01-31T14:01:42.236Z,4.46
2019-01-31T14:04:09.461Z,4.53
2019-01-31T14:06:36.713Z,4.58
2019-01-31T14:09:07.583Z,4.34
2019-01-31T14:11:34.812Z,4.38
2019-01-31T14:14:08.738Z,4.27
2019-01-31T14:16:31.217Z,4.37
2019-01-31T14:18:58.469Z,4.38
2019-01-31T14:21:25.711Z,4.34
2019-01-31T14:23:53.416Z,4.29
2019-01-31T14:26:20.626Z,4.36
2019-01-31T14:28:47.906Z,4.39
2019-01-31T14:31:15.326Z,4.40
2019-01-31T14:33:42.549Z,4.43
2019-01-31T14:36:09.795Z,4.38
2019-01-31T14:38:37.022Z,4.28
2019-01-31T14:41:04.358Z,4.25
2019-01-31T14:43:31.578Z,4.08
2019-01-31T14:45:58.812Z,4.16
2019-01-31T14:48:26.038Z,4.36
2019-01-31T14:50:53.343Z,4.23
2019-01-31T14:53:20.606Z,4.27
2019-01-31T14:55:47.820Z,4.09
2019-01-31T14:58:15.155Z,4.13
2019-01-31T15:00:42.375Z,4.22
2019-01-31T15:03:09.647Z,4.29
2019-01-31T15:05:37.068Z,4.03
2019-01-31T15:08:04.780Z,3.98
2019-01-31T15:10:32.157Z,4.08
2019-01-31T15:12:59.387Z,3.84
2019-01-31T15:15:26.618Z,3.77
2019-01-31T15:17:54.000Z,3.81
2019-01-31T15:20:35.796Z,3.54
2019-01-31T15:22:55.442Z,3.67
2019-01-31T15:25:22.796Z,3.72
2019-01-31T15:27:50.173Z,3.66
2019-01-31T15:30:20.763Z,3.66
2019-01-31T15:32:48.012Z,3.64
2019-01-31T15:35:16.645Z,3.63
2019-01-31T15:37:43.916Z,3.55
2019-01-31T15:40:15.455Z,3.68
2019-01-31T15:42:42.664Z,3.67
2019-01-31T15:45:10.216Z,3.73
2019-01-31T15:47:37.437Z,3.78
2019-01-31T15:50:06.429Z,3.68
2019-01-31T15:52:33.804Z,3.73
2019-01-31T15:55:01.084Z,3.78
2019-01-31T15:57:28.317Z,3.52
2019-01-31T15:59:55.542Z,3.56
2019-01-31T16:02:22.773Z,3.56
2019-01-31T16:04:50.036Z,3.50
2019-01-31T16:07:17.260Z,3.42
2019-01-31T16:09:44.489Z,3.30
2019-01-31T16:12:12.070Z,3.30
2019-01-31T16:14:39.424Z,3.36
2019-01-31T16:17:06.806Z,3.39
2019-01-31T16:19:34.071Z,3.28
2019-01-31T16:22:01.285Z,3.02
2019-01-31T16:24:28.505Z,3.19
2019-01-31T16:26:55.797Z,3.19
2019-01-31T16:29:23.041Z,2.99
2019-01-31T16:31:50.519Z,3.08
2019-01-31T16:34:17.789Z,3.11
2019-01-31T16:36:45.103Z,3.18
2019-01-31T16:39:12.358Z,3.12
2019-01-31T16:41:39.579Z,3.27
2019-01-31T16:44:07.183Z,3.22
2019-01-31T16:46:36.480Z,3.27
2019-01-31T16:49:03.980Z,3.28
2019-01-31T16:51:31.387Z,3.32
2019-01-31T16:53:58.669Z,3.37
2019-01-31T16:56:25.939Z,3.19
2019-01-31T16:58:53.755Z,3.26
2019-01-31T17:01:20.955Z,3.29
2019-01-31T17:03:48.210Z,3.12
2019-01-31T17:06:15.413Z,2.92
2019-01-31T17:08:42.655Z,2.94
2019-01-31T17:11:09.856Z,2.64
2019-01-31T17:13:37.062Z,2.83
2019-01-31T17:16:04.330Z,2.95
2019-01-31T17:18:31.530Z,3.06
2019-01-31T17:20:58.752Z,2.99
2019-01-31T17:23:26.012Z,2.97
2019-01-31T17:25:53.241Z,3.07
2019-01-31T17:28:20.453Z,3.16
2019-01-31T17:30:47.742Z,2.93
2019-01-31T17:33:14.973Z,2.76
2019-01-31T17:35:42.215Z,2.84
2019-01-31T17:38:09.655Z,2.80
2019-01-31T17:40:38.735Z,2.48
2019-01-31T17:43:07.145Z,2.57
2019-01-31T17:45:34.355Z,2.63
2019-01-31T17:48:01.690Z,2.73
2019-01-31T17:50:28.920Z,2.82
2019-01-31T17:52:56.328Z,2.87
2019-01-31T17:55:23.799Z,2.94
2019-01-31T17:57:51.327Z,2.99
2019-01-31T18:00:24.657Z,3.04
2019-01-31T18:02:51.909Z,2.97
2019-01-31T18:05:19.125Z,2.98
2019-01-31T18:07:46.371Z,2.99
2019-01-31T18:10:16.426Z,2.99
2019-01-31T18:12:43.740Z,2.89
2019-01-31T18:15:11.638Z,2.81
2019-01-31T18:17:38.911Z,2.77
2019-01-31T18:20:07.458Z,2.76
2019-01-31T18:22:34.672Z,2.75
2019-01-31T18:25:01.943Z,2.59
2019-01-31T18:27:29.165Z,2.57
2019-01-31T18:29:59.197Z,2.52
2019-01-31T18:32:26.481Z,2.49
2019-01-31T18:34:53.742Z,2.47
2019-01-31T18:37:20.985Z,2.36
2019-01-31T18:39:48.222Z,2.18
2019-01-31T18:42:15.566Z,1.98
2019-01-31T18:44:43.750Z,2.04
2019-01-31T18:47:11.124Z,2.15
2019-01-31T18:49:38.397Z,2.21
2019-01-31T18:52:05.698Z,2.18
2019-01-31T18:54:32.932Z,2.07
2019-01-31T18:57:00.182Z,1.91
2019-01-31T18:59:27.433Z,1.72
2019-01-31T19:01:54.658Z,1.66
2019-01-31T19:04:21.894Z,1.35
2019-01-31T19:06:49.122Z,1.33
2019-01-31T19:09:16.331Z,1.49
2019-01-31T19:11:43.598Z,1.27
2019-01-31T19:14:10.933Z,0.84
2019-01-31T19:16:38.214Z,1.06
2019-01-31T19:19:05.532Z,1.00
2019-01-31T19:21:32.771Z,1.01
2019-01-31T19:24:00.053Z,0.90
2019-01-31T19:26:27.471Z,0.77
2019-01-31T19:28:54.685Z,0.77
2019-01-31T19:31:22.016Z,0.63
2019-01-31T19:33:51.714Z,0.58
2019-01-31T19:36:18.417Z,0.60
2019-01-31T19:38:45.658Z,0.70
2019-01-31T19:41:12.889Z,0.50
2019-01-31T19:43:40.130Z,0.45
2019-01-31T19:46:16.217Z,0.54
2019-01-31T19:48:36.661Z,0.54
2019-01-31T19:51:04.317Z,0.70
2019-01-31T19:53:31.631Z,0.73
2019-01-31T19:55:58.876Z,0.80
2019-01-31T19:58:26.168Z,0.72
2019-01-31T20:00:53.392Z,0.70
2019-01-31T20:03:20.638Z,0.88
2019-01-31T20:05:47.894Z,0.92
2019-01-31T20:08:15.334Z,0.72
2019-01-31T20:10:42.720Z,0.95
2019-01-31T20:13:09.966Z,0.86
2019-01-31T20:15:37.195Z,0.80
2019-01-31T20:18:04.946Z,0.68
2019-01-31T20:20:32.223Z,0.83
2019-01-31T20:22:59.565Z,0.70
2019-01-31T20:25:27.649Z,0.78
2019-01-31T20:27:54.921Z,0.57
2019-01-31T20:30:24.360Z,0.51
2019-01-31T20:32:51.914Z,0.60
2019-01-31T20:35:19.571Z,0.56
2019-01-31T20:37:46.798Z,0.63
2019-01-31T20:40:16.328Z,0.69
2019-01-31T20:42:43.629Z,0.82
2019-01-31T20:45:11.856Z,0.77
2019-01-31T20:47:39.205Z,0.76
2019-01-31T20:50:10.129Z,0.67
2019-01-31T20:52:37.613Z,0.75
2019-01-31T20:55:06.187Z,0.73
2019-01-31T20:57:33.492Z,0.73
2019-01-31T21:00:00.694Z,0.83
2019-01-31T21:02:27.945Z,0.92
2019-01-31T21:04:55.209Z,0.75
2019-01-31T21:07:22.456Z,0.81
2019-01-31T21:09:49.669Z,1.00
2019-01-31T21:12:17.148Z,0.98
2019-01-31T21:14:44.358Z,0.84
2019-01-31T21:17:11.563Z,0.69
2019-01-31T21:19:38.819Z,0.74
2019-01-31T21:22:06.140Z,0.67
2019-01-31T21:24:33.418Z,0.74
2019-01-31T21:27:00.649Z,0.61
2019-01-31T21:29:27.924Z,0.82
2019-01-31T21:31:55.162Z,0.74
2019-01-31T21:34:23.187Z,0.74
2019-01-31T21:36:50.457Z,0.77
2019-01-31T21:39:17.705Z,0.69
2019-01-31T21:41:44.982Z,0.66
2019-01-31T21:44:12.224Z,0.60
2019-01-31T21:46:39.472Z,0.67
2019-01-31T21:49:06.735Z,0.87
2019-01-31T21:51:37.397Z,0.82
2019-01-31T21:54:04.815Z,0.96
2019-01-31T21:56:32.082Z,0.81
2019-01-31T21:58:59.326Z,0.79
2019-01-31T22:01:26.567Z,0.84
2019-01-31T22:03:53.807Z,0.86
2019-01-31T22:06:22.702Z,0.84
2019-01-31T22:08:50.226Z,0.91
2019-01-31T22:11:17.504Z,0.83
2019-01-31T22:13:44.735Z,0.80
2019-01-31T22:16:12.012Z,0.80
2019-01-31T22:18:39.356Z,0.75
2019-01-31T22:21:06.583Z,0.74
2019-01-31T22:23:33.815Z,0.74
2019-01-31T22:26:01.147Z,0.90
2019-01-31T22:28:28.464Z,0.91
2019-01-31T22:30:55.758Z,0.80
2019-01-31T22:33:23.369Z,0.69
2019-01-31T22:35:50.836Z,0.79
2019-01-31T22:38:18.074Z,0.91
2019-01-31T22:40:45.632Z,0.82
2019-01-31T22:43:12.877Z,0.86
2019-01-31T22:45:40.207Z,0.82
2019-01-31T22:48:07.489Z,0.85
2019-01-31T22:50:34.827Z,0.94
2019-01-31T22:53:02.048Z,0.90
2019-01-31T22:55:29.322Z,0.99
2019-01-31T22:57:56.546Z,0.89
2019-01-31T23:00:32.123Z,0.94
2019-01-31T23:02:59.381Z,0.92
2019-01-31T23:05:26.630Z,0.91
2019-01-31T23:07:54.002Z,0.82
2019-01-31T23:10:21.322Z,0.84
2019-01-31T23:12:48.546Z,0.83
2019-01-31T23:15:18.509Z,0.72
2019-01-31T23:17:45.727Z,0.72
2019-01-31T23:20:13.450Z,0.81
2019-01-31T23:22:40.816Z,0.59
2019-01-31T23:25:08.337Z,0.59
2019-01-31T23:27:35.565Z,0.59
2019-01-31T23:30:05.303Z,0.68
2019-01-31T23:32:32.525Z,0.68
2019-01-31T23:34:59.757Z,0.63
2019-01-31T23:37:27.179Z,0.52
2019-01-31T23:39:54.507Z,0.69
2019-01-31T23:42:21.733Z,0.78
2019-01-31T23:44:48.993Z,0.62
2019-01-31T23:47:16.216Z,0.63
2019-01-31T23:49:43.441Z,0.61
2019-01-31T23:52:11.083Z,0.63
2019-01-31T23:54:38.392Z,0.53
2019-01-31T23:57:05.622Z,0.62
2019-01-31T23:59:32.884Z,0.30
